sensor_id;sensor_type;location;lat;lon;timestamp;P1;durP1;ratioP1;P2;durP2;ratioP2
2338;SDS011;1180;51.438;6.978;2022-10-16T00:01:42;2.27;;;2.07;;
2338;SDS011;1180;51.438;6.978;2022-10-16T00:04:08;3.30;;;2.07;;
2338;SDS011;1180;51.438;6.978;2022-10-16T00:06:33;2.00;;;1.90;;
2338;SDS011;1180;51.438;6.978;2022-10-16T00:08:59;3.57;;;2.00;;
2338;SDS011;1180;51.438;6.978;2022-10-16T00:11:26;3.83;;;2.43;;
2338;SDS011;1180;51.438;6.978;2022-10-16T00:13:59;2.93;;;2.13;;
2338;SDS011;1180;51.438;6.978;2022-10-16T00:16:25;2.43;;;2.10;;
2338;SDS011;1180;51.438;6.978;2022-10-16T00:18:52;4.50;;;1.87;;
2338;SDS011;1180;51.438;6.978;2022-10-16T00:21:18;3.33;;;2.00;;
2338;SDS011;1180;51.438;6.978;2022-10-16T00:23:45;2.80;;;1.37;;
2338;SDS011;1180;51.438;6.978;2022-10-16T00:26:13;4.57;;;1.87;;
2338;SDS011;1180;51.438;6.978;2022-10-16T00:28:40;1.83;;;1.57;;
2338;SDS011;1180;51.438;6.978;2022-10-16T00:31:06;2.63;;;2.10;;
2338;SDS011;1180;51.438;6.978;2022-10-16T00:33:34;2.60;;;1.70;;
2338;SDS011;1180;51.438;6.978;2022-10-16T00:36:00;3.23;;;2.20;;
2338;SDS011;1180;51.438;6.978;2022-10-16T00:38:26;2.07;;;1.60;;
2338;SDS011;1180;51.438;6.978;2022-10-16T00:40:52;4.40;;;2.00;;
2338;SDS011;1180;51.438;6.978;2022-10-16T00:43:34;2.33;;;1.50;;
2338;SDS011;1180;51.438;6.978;2022-10-16T00:46:00;3.57;;;2.13;;
2338;SDS011;1180;51.438;6.978;2022-10-16T00:48:27;1.43;;;1.33;;
2338;SDS011;1180;51.438;6.978;2022-10-16T00:50:52;2.50;;;1.50;;
2338;SDS011;1180;51.438;6.978;2022-10-16T00:53:18;2.17;;;1.43;;
2338;SDS011;1180;51.438;6.978;2022-10-16T00:55:44;2.33;;;2.00;;
2338;SDS011;1180;51.438;6.978;2022-10-16T00:58:10;2.63;;;1.53;;
2338;SDS011;1180;51.438;6.978;2022-10-16T01:00:36;3.93;;;1.70;;
2338;SDS011;1180;51.438;6.978;2022-10-16T01:03:01;1.90;;;1.70;;
2338;SDS011;1180;51.438;6.978;2022-10-16T01:05:50;2.60;;;1.97;;
2338;SDS011;1180;51.438;6.978;2022-10-16T01:08:30;2.93;;;1.87;;
2338;SDS011;1180;51.438;6.978;2022-10-16T01:11:17;2.70;;;2.00;;
2338;SDS011;1180;51.438;6.978;2022-10-16T01:13:53;3.30;;;1.50;;
2338;SDS011;1180;51.438;6.978;2022-10-16T01:21:42;2.90;;;1.40;;
2338;SDS011;1180;51.438;6.978;2022-10-16T01:32:27;2.77;;;1.60;;
2338;SDS011;1180;51.438;6.978;2022-10-16T01:37:33;1.90;;;1.70;;
2338;SDS011;1180;51.438;6.978;2022-10-16T01:40:05;2.60;;;1.53;;
2338;SDS011;1180;51.438;6.978;2022-10-16T01:42:36;1.40;;;1.20;;
2338;SDS011;1180;51.438;6.978;2022-10-16T01:45:23;1.57;;;1.20;;
2338;SDS011;1180;51.438;6.978;2022-10-16T01:47:49;2.30;;;1.10;;
2338;SDS011;1180;51.438;6.978;2022-10-16T01:50:18;2.03;;;1.10;;
2338;SDS011;1180;51.438;6.978;2022-10-16T01:52:45;1.63;;;0.83;;
2338;SDS011;1180;51.438;6.978;2022-10-16T01:55:16;2.00;;;1.43;;
2338;SDS011;1180;51.438;6.978;2022-10-16T01:57:46;2.70;;;1.40;;
2338;SDS011;1180;51.438;6.978;2022-10-16T02:00:14;1.33;;;1.10;;
2338;SDS011;1180;51.438;6.978;2022-10-16T02:02:43;3.40;;;1.50;;
2338;SDS011;1180;51.438;6.978;2022-10-16T02:07:43;1.40;;;1.17;;
2338;SDS011;1180;51.438;6.978;2022-10-16T02:10:09;4.30;;;1.23;;
2338;SDS011;1180;51.438;6.978;2022-10-16T02:12:36;1.20;;;1.10;;
2338;SDS011;1180;51.438;6.978;2022-10-16T02:15:05;3.27;;;1.43;;
2338;SDS011;1180;51.438;6.978;2022-10-16T02:17:31;2.67;;;1.83;;
2338;SDS011;1180;51.438;6.978;2022-10-16T02:19:57;3.50;;;1.60;;
2338;SDS011;1180;51.438;6.978;2022-10-16T02:22:26;4.07;;;1.97;;
2338;SDS011;1180;51.438;6.978;2022-10-16T02:30:38;5.70;;;1.70;;
2338;SDS011;1180;51.438;6.978;2022-10-16T02:33:08;1.90;;;1.70;;
2338;SDS011;1180;51.438;6.978;2022-10-16T02:35:36;3.30;;;1.60;;
2338;SDS011;1180;51.438;6.978;2022-10-16T02:38:03;2.43;;;1.50;;
2338;SDS011;1180;51.438;6.978;2022-10-16T02:40:29;4.20;;;1.73;;
2338;SDS011;1180;51.438;6.978;2022-10-16T02:42:55;2.50;;;1.50;;
2338;SDS011;1180;51.438;6.978;2022-10-16T02:45:21;1.90;;;1.67;;
2338;SDS011;1180;51.438;6.978;2022-10-16T02:47:47;1.80;;;1.20;;
2338;SDS011;1180;51.438;6.978;2022-10-16T02:50:13;1.10;;;1.00;;
2338;SDS011;1180;51.438;6.978;2022-10-16T02:52:38;2.80;;;1.10;;
2338;SDS011;1180;51.438;6.978;2022-10-16T02:55:04;1.33;;;1.20;;
2338;SDS011;1180;51.438;6.978;2022-10-16T02:57:30;6.07;;;2.27;;
2338;SDS011;1180;51.438;6.978;2022-10-16T02:59:56;1.40;;;1.30;;
2338;SDS011;1180;51.438;6.978;2022-10-16T03:02:21;1.43;;;1.33;;
2338;SDS011;1180;51.438;6.978;2022-10-16T03:04:46;3.00;;;1.27;;
2338;SDS011;1180;51.438;6.978;2022-10-16T03:07:12;1.83;;;1.10;;
2338;SDS011;1180;51.438;6.978;2022-10-16T03:09:37;3.40;;;1.73;;
2338;SDS011;1180;51.438;6.978;2022-10-16T03:12:03;1.83;;;1.40;;
2338;SDS011;1180;51.438;6.978;2022-10-16T03:14:28;2.00;;;1.20;;
2338;SDS011;1180;51.438;6.978;2022-10-16T03:16:53;1.70;;;1.00;;
2338;SDS011;1180;51.438;6.978;2022-10-16T03:19:19;1.37;;;1.27;;
2338;SDS011;1180;51.438;6.978;2022-10-16T03:21:44;0.87;;;0.80;;
2338;SDS011;1180;51.438;6.978;2022-10-16T03:24:10;1.73;;;1.50;;
2338;SDS011;1180;51.438;6.978;2022-10-16T03:26:35;3.20;;;1.23;;
2338;SDS011;1180;51.438;6.978;2022-10-16T03:29:01;1.87;;;1.30;;
2338;SDS011;1180;51.438;6.978;2022-10-16T03:31:28;1.57;;;1.20;;
2338;SDS011;1180;51.438;6.978;2022-10-16T03:33:54;4.10;;;1.20;;
2338;SDS011;1180;51.438;6.978;2022-10-16T03:36:19;1.20;;;1.00;;
2338;SDS011;1180;51.438;6.978;2022-10-16T03:38:44;1.47;;;1.37;;
2338;SDS011;1180;51.438;6.978;2022-10-16T03:41:10;2.03;;;0.90;;
2338;SDS011;1180;51.438;6.978;2022-10-16T03:43:35;2.20;;;1.53;;
2338;SDS011;1180;51.438;6.978;2022-10-16T03:46:00;1.83;;;1.23;;
2338;SDS011;1180;51.438;6.978;2022-10-16T03:48:26;1.10;;;1.00;;
2338;SDS011;1180;51.438;6.978;2022-10-16T03:50:51;3.17;;;1.30;;
2338;SDS011;1180;51.438;6.978;2022-10-16T03:53:18;1.97;;;1.20;;
2338;SDS011;1180;51.438;6.978;2022-10-16T03:55:43;1.37;;;1.17;;
2338;SDS011;1180;51.438;6.978;2022-10-16T03:58:09;1.60;;;1.20;;
2338;SDS011;1180;51.438;6.978;2022-10-16T04:00:35;1.43;;;1.30;;
2338;SDS011;1180;51.438;6.978;2022-10-16T04:03:04;2.10;;;1.60;;
2338;SDS011;1180;51.438;6.978;2022-10-16T04:05:29;1.50;;;1.40;;
2338;SDS011;1180;51.438;6.978;2022-10-16T04:07:55;1.60;;;1.27;;
2338;SDS011;1180;51.438;6.978;2022-10-16T04:10:20;1.63;;;1.53;;
2338;SDS011;1180;51.438;6.978;2022-10-16T04:12:45;1.20;;;1.10;;
2338;SDS011;1180;51.438;6.978;2022-10-16T04:15:11;1.10;;;1.00;;
2338;SDS011;1180;51.438;6.978;2022-10-16T04:17:36;1.53;;;1.37;;
2338;SDS011;1180;51.438;6.978;2022-10-16T04:20:02;1.87;;;1.27;;
2338;SDS011;1180;51.438;6.978;2022-10-16T04:22:28;2.17;;;1.87;;
2338;SDS011;1180;51.438;6.978;2022-10-16T04:24:53;1.33;;;1.23;;
2338;SDS011;1180;51.438;6.978;2022-10-16T04:27:19;1.20;;;1.10;;
2338;SDS011;1180;51.438;6.978;2022-10-16T04:29:44;1.57;;;1.30;;
2338;SDS011;1180;51.438;6.978;2022-10-16T04:32:09;1.30;;;1.20;;
2338;SDS011;1180;51.438;6.978;2022-10-16T04:34:35;3.17;;;1.40;;
2338;SDS011;1180;51.438;6.978;2022-10-16T04:37:01;2.70;;;1.50;;
2338;SDS011;1180;51.438;6.978;2022-10-16T04:39:26;1.60;;;1.30;;
2338;SDS011;1180;51.438;6.978;2022-10-16T04:41:51;3.57;;;1.27;;
2338;SDS011;1180;51.438;6.978;2022-10-16T04:44:17;1.43;;;1.33;;
2338;SDS011;1180;51.438;6.978;2022-10-16T04:46:42;1.73;;;1.37;;
2338;SDS011;1180;51.438;6.978;2022-10-16T04:49:09;1.77;;;0.93;;
2338;SDS011;1180;51.438;6.978;2022-10-16T04:51:34;1.20;;;0.93;;
2338;SDS011;1180;51.438;6.978;2022-10-16T04:54:00;1.30;;;1.13;;
2338;SDS011;1180;51.438;6.978;2022-10-16T04:56:25;1.67;;;1.00;;
2338;SDS011;1180;51.438;6.978;2022-10-16T04:58:51;1.40;;;1.20;;
2338;SDS011;1180;51.438;6.978;2022-10-16T05:01:16;1.20;;;1.10;;
2338;SDS011;1180;51.438;6.978;2022-10-16T05:03:41;1.77;;;1.67;;
2338;SDS011;1180;51.438;6.978;2022-10-16T05:06:07;3.87;;;1.60;;
2338;SDS011;1180;51.438;6.978;2022-10-16T05:08:32;1.60;;;1.50;;
2338;SDS011;1180;51.438;6.978;2022-10-16T05:10:58;1.67;;;1.57;;
2338;SDS011;1180;51.438;6.978;2022-10-16T05:13:23;3.33;;;1.07;;
2338;SDS011;1180;51.438;6.978;2022-10-16T05:15:49;3.53;;;1.40;;
2338;SDS011;1180;51.438;6.978;2022-10-16T05:18:14;3.00;;;1.30;;
2338;SDS011;1180;51.438;6.978;2022-10-16T05:20:41;3.80;;;1.47;;
2338;SDS011;1180;51.438;6.978;2022-10-16T05:23:07;1.00;;;1.00;;
2338;SDS011;1180;51.438;6.978;2022-10-16T05:25:32;1.50;;;1.37;;
2338;SDS011;1180;51.438;6.978;2022-10-16T05:27:58;2.20;;;1.20;;
2338;SDS011;1180;51.438;6.978;2022-10-16T05:30:23;2.20;;;1.10;;
2338;SDS011;1180;51.438;6.978;2022-10-16T05:32:49;1.30;;;1.20;;
2338;SDS011;1180;51.438;6.978;2022-10-16T05:35:15;1.57;;;1.17;;
2338;SDS011;1180;51.438;6.978;2022-10-16T05:37:42;1.17;;;1.07;;
2338;SDS011;1180;51.438;6.978;2022-10-16T05:40:07;1.73;;;1.20;;
2338;SDS011;1180;51.438;6.978;2022-10-16T05:42:33;1.43;;;1.10;;
2338;SDS011;1180;51.438;6.978;2022-10-16T05:44:59;1.50;;;1.20;;
2338;SDS011;1180;51.438;6.978;2022-10-16T05:47:24;1.60;;;1.27;;
2338;SDS011;1180;51.438;6.978;2022-10-16T05:49:50;1.57;;;1.47;;
2338;SDS011;1180;51.438;6.978;2022-10-16T05:52:15;1.50;;;1.17;;
2338;SDS011;1180;51.438;6.978;2022-10-16T05:54:40;5.10;;;1.77;;
2338;SDS011;1180;51.438;6.978;2022-10-16T05:57:06;2.10;;;1.17;;
2338;SDS011;1180;51.438;6.978;2022-10-16T05:59:31;3.33;;;1.57;;
2338;SDS011;1180;51.438;6.978;2022-10-16T06:01:57;1.30;;;1.13;;
2338;SDS011;1180;51.438;6.978;2022-10-16T06:04:22;2.63;;;1.20;;
2338;SDS011;1180;51.438;6.978;2022-10-16T06:06:48;1.23;;;1.13;;
2338;SDS011;1180;51.438;6.978;2022-10-16T06:09:13;2.37;;;1.10;;
2338;SDS011;1180;51.438;6.978;2022-10-16T06:11:38;2.13;;;1.43;;
2338;SDS011;1180;51.438;6.978;2022-10-16T06:14:04;1.30;;;1.10;;
2338;SDS011;1180;51.438;6.978;2022-10-16T06:16:32;2.20;;;1.20;;
2338;SDS011;1180;51.438;6.978;2022-10-16T06:18:59;1.40;;;1.30;;
2338;SDS011;1180;51.438;6.978;2022-10-16T06:21:25;1.70;;;1.00;;
2338;SDS011;1180;51.438;6.978;2022-10-16T06:23:51;3.53;;;1.63;;
2338;SDS011;1180;51.438;6.978;2022-10-16T06:26:18;3.93;;;1.37;;
2338;SDS011;1180;51.438;6.978;2022-10-16T06:28:45;2.37;;;1.33;;
2338;SDS011;1180;51.438;6.978;2022-10-16T06:31:11;2.63;;;1.60;;
2338;SDS011;1180;51.438;6.978;2022-10-16T06:33:38;2.87;;;1.30;;
2338;SDS011;1180;51.438;6.978;2022-10-16T06:36:10;2.73;;;1.80;;
2338;SDS011;1180;51.438;6.978;2022-10-16T06:38:38;2.00;;;1.10;;
2338;SDS011;1180;51.438;6.978;2022-10-16T06:41:04;1.53;;;1.23;;
2338;SDS011;1180;51.438;6.978;2022-10-16T06:43:31;4.60;;;1.60;;
2338;SDS011;1180;51.438;6.978;2022-10-16T06:46:03;1.30;;;1.20;;
2338;SDS011;1180;51.438;6.978;2022-10-16T06:48:30;2.57;;;1.30;;
2338;SDS011;1180;51.438;6.978;2022-10-16T06:50:59;2.70;;;1.10;;
2338;SDS011;1180;51.438;6.978;2022-10-16T06:53:27;2.37;;;1.30;;
2338;SDS011;1180;51.438;6.978;2022-10-16T06:55:54;1.83;;;1.20;;
2338;SDS011;1180;51.438;6.978;2022-10-16T06:58:19;1.30;;;1.20;;
2338;SDS011;1180;51.438;6.978;2022-10-16T07:00:45;3.37;;;1.50;;
2338;SDS011;1180;51.438;6.978;2022-10-16T07:03:11;2.50;;;1.93;;
2338;SDS011;1180;51.438;6.978;2022-10-16T07:05:42;2.27;;;1.80;;
2338;SDS011;1180;51.438;6.978;2022-10-16T07:08:08;1.43;;;1.33;;
2338;SDS011;1180;51.438;6.978;2022-10-16T07:10:34;1.50;;;1.40;;
2338;SDS011;1180;51.438;6.978;2022-10-16T07:13:00;6.17;;;1.60;;
2338;SDS011;1180;51.438;6.978;2022-10-16T07:15:26;2.60;;;1.83;;
2338;SDS011;1180;51.438;6.978;2022-10-16T07:17:52;1.47;;;1.37;;
2338;SDS011;1180;51.438;6.978;2022-10-16T07:20:18;1.43;;;1.20;;
2338;SDS011;1180;51.438;6.978;2022-10-16T07:22:43;1.80;;;1.47;;
2338;SDS011;1180;51.438;6.978;2022-10-16T07:25:09;1.97;;;1.47;;
2338;SDS011;1180;51.438;6.978;2022-10-16T07:27:35;1.90;;;1.23;;
2338;SDS011;1180;51.438;6.978;2022-10-16T07:30:00;2.50;;;1.47;;
2338;SDS011;1180;51.438;6.978;2022-10-16T07:32:25;3.90;;;1.50;;
2338;SDS011;1180;51.438;6.978;2022-10-16T07:34:54;2.50;;;1.67;;
2338;SDS011;1180;51.438;6.978;2022-10-16T07:37:20;1.87;;;1.20;;
2338;SDS011;1180;51.438;6.978;2022-10-16T07:39:46;2.27;;;1.53;;
2338;SDS011;1180;51.438;6.978;2022-10-16T07:42:11;1.33;;;1.23;;
2338;SDS011;1180;51.438;6.978;2022-10-16T07:44:37;2.50;;;1.33;;
2338;SDS011;1180;51.438;6.978;2022-10-16T07:47:02;1.30;;;1.20;;
2338;SDS011;1180;51.438;6.978;2022-10-16T07:49:28;2.23;;;1.57;;
2338;SDS011;1180;51.438;6.978;2022-10-16T07:51:53;1.83;;;1.40;;
2338;SDS011;1180;51.438;6.978;2022-10-16T07:54:18;1.87;;;1.40;;
2338;SDS011;1180;51.438;6.978;2022-10-16T07:56:44;1.80;;;1.43;;
2338;SDS011;1180;51.438;6.978;2022-10-16T07:59:09;5.03;;;1.93;;
2338;SDS011;1180;51.438;6.978;2022-10-16T08:01:34;1.60;;;1.23;;
2338;SDS011;1180;51.438;6.978;2022-10-16T08:04:00;1.90;;;1.53;;
2338;SDS011;1180;51.438;6.978;2022-10-16T08:06:25;1.33;;;1.23;;
2338;SDS011;1180;51.438;6.978;2022-10-16T08:08:51;1.90;;;1.40;;
2338;SDS011;1180;51.438;6.978;2022-10-16T08:11:16;3.17;;;1.40;;
2338;SDS011;1180;51.438;6.978;2022-10-16T08:13:42;1.60;;;1.50;;
2338;SDS011;1180;51.438;6.978;2022-10-16T08:16:07;2.00;;;1.73;;
2338;SDS011;1180;51.438;6.978;2022-10-16T08:18:35;3.20;;;2.00;;
2338;SDS011;1180;51.438;6.978;2022-10-16T08:21:02;1.43;;;1.20;;
2338;SDS011;1180;51.438;6.978;2022-10-16T08:23:29;2.90;;;1.60;;
2338;SDS011;1180;51.438;6.978;2022-10-16T08:25:55;3.50;;;1.30;;
2338;SDS011;1180;51.438;6.978;2022-10-16T08:28:22;2.13;;;1.10;;
2338;SDS011;1180;51.438;6.978;2022-10-16T08:30:48;2.43;;;1.43;;
2338;SDS011;1180;51.438;6.978;2022-10-16T08:33:14;3.00;;;1.90;;
2338;SDS011;1180;51.438;6.978;2022-10-16T08:35:39;3.00;;;1.77;;
2338;SDS011;1180;51.438;6.978;2022-10-16T08:38:05;1.67;;;1.20;;
2338;SDS011;1180;51.438;6.978;2022-10-16T08:40:32;1.83;;;1.27;;
2338;SDS011;1180;51.438;6.978;2022-10-16T08:48:35;1.27;;;1.10;;
2338;SDS011;1180;51.438;6.978;2022-10-16T08:51:06;1.40;;;1.07;;
2338;SDS011;1180;51.438;6.978;2022-10-16T08:53:37;1.87;;;1.77;;
2338;SDS011;1180;51.438;6.978;2022-10-16T08:56:07;2.03;;;1.40;;
2338;SDS011;1180;51.438;6.978;2022-10-16T08:58:33;2.83;;;1.40;;
2338;SDS011;1180;51.438;6.978;2022-10-16T09:01:00;3.93;;;1.17;;
2338;SDS011;1180;51.438;6.978;2022-10-16T09:03:32;1.93;;;1.10;;
2338;SDS011;1180;51.438;6.978;2022-10-16T09:06:20;1.47;;;0.90;;
2338;SDS011;1180;51.438;6.978;2022-10-16T09:22:34;5.60;;;1.50;;
2338;SDS011;1180;51.438;6.978;2022-10-16T09:25:00;1.67;;;1.20;;
2338;SDS011;1180;51.438;6.978;2022-10-16T09:27:35;2.00;;;1.60;;
2338;SDS011;1180;51.438;6.978;2022-10-16T09:30:09;1.93;;;1.50;;
2338;SDS011;1180;51.438;6.978;2022-10-16T09:32:40;2.60;;;1.30;;
2338;SDS011;1180;51.438;6.978;2022-10-16T09:35:11;1.40;;;1.00;;
2338;SDS011;1180;51.438;6.978;2022-10-16T09:37:41;1.57;;;1.13;;
2338;SDS011;1180;51.438;6.978;2022-10-16T09:40:13;1.63;;;1.40;;
2338;SDS011;1180;51.438;6.978;2022-10-16T09:42:52;1.30;;;1.20;;
2338;SDS011;1180;51.438;6.978;2022-10-16T09:45:26;2.33;;;1.13;;
2338;SDS011;1180;51.438;6.978;2022-10-16T09:47:51;2.00;;;1.10;;
2338;SDS011;1180;51.438;6.978;2022-10-16T09:50:22;1.20;;;1.10;;
2338;SDS011;1180;51.438;6.978;2022-10-16T09:52:51;1.80;;;1.00;;
2338;SDS011;1180;51.438;6.978;2022-10-16T09:55:27;2.70;;;1.03;;
2338;SDS011;1180;51.438;6.978;2022-10-16T09:57:53;1.37;;;1.03;;
2338;SDS011;1180;51.438;6.978;2022-10-16T10:00:19;1.50;;;0.93;;
2338;SDS011;1180;51.438;6.978;2022-10-16T10:02:48;2.10;;;0.93;;
2338;SDS011;1180;51.438;6.978;2022-10-16T10:05:27;1.97;;;1.00;;
2338;SDS011;1180;51.438;6.978;2022-10-16T10:07:55;2.80;;;0.80;;
2338;SDS011;1180;51.438;6.978;2022-10-16T10:10:23;1.40;;;1.10;;
2338;SDS011;1180;51.438;6.978;2022-10-16T10:12:51;4.30;;;1.17;;
2338;SDS011;1180;51.438;6.978;2022-10-16T10:15:17;2.33;;;1.33;;
2338;SDS011;1180;51.438;6.978;2022-10-16T10:17:56;2.07;;;0.90;;
2338;SDS011;1180;51.438;6.978;2022-10-16T10:22:52;1.40;;;1.00;;
2338;SDS011;1180;51.438;6.978;2022-10-16T10:25:36;1.20;;;1.00;;
2338;SDS011;1180;51.438;6.978;2022-10-16T10:36:07;2.80;;;1.10;;
2338;SDS011;1180;51.438;6.978;2022-10-16T10:41:27;1.17;;;1.00;;
2338;SDS011;1180;51.438;6.978;2022-10-16T10:46:56;4.57;;;1.63;;
2338;SDS011;1180;51.438;6.978;2022-10-16T11:03:42;1.60;;;0.80;;
2338;SDS011;1180;51.438;6.978;2022-10-16T11:09:06;1.27;;;0.77;;
2338;SDS011;1180;51.438;6.978;2022-10-16T11:11:45;1.40;;;1.03;;
2338;SDS011;1180;51.438;6.978;2022-10-16T11:14:17;3.07;;;1.20;;
2338;SDS011;1180;51.438;6.978;2022-10-16T11:17:13;1.83;;;1.20;;
2338;SDS011;1180;51.438;6.978;2022-10-16T11:28:20;2.40;;;0.80;;
2338;SDS011;1180;51.438;6.978;2022-10-16T11:31:00;3.83;;;1.07;;
2338;SDS011;1180;51.438;6.978;2022-10-16T11:33:32;1.87;;;0.90;;
2338;SDS011;1180;51.438;6.978;2022-10-16T11:36:21;1.00;;;0.70;;
2338;SDS011;1180;51.438;6.978;2022-10-16T11:41:32;5.07;;;0.90;;
2338;SDS011;1180;51.438;6.978;2022-10-16T11:49:34;2.00;;;1.00;;
2338;SDS011;1180;51.438;6.978;2022-10-16T11:54:59;1.43;;;0.77;;
2338;SDS011;1180;51.438;6.978;2022-10-16T11:57:32;1.73;;;0.70;;
2338;SDS011;1180;51.438;6.978;2022-10-16T12:00:08;1.20;;;0.77;;
2338;SDS011;1180;51.438;6.978;2022-10-16T12:02:50;1.73;;;0.87;;
2338;SDS011;1180;51.438;6.978;2022-10-16T12:05:32;2.10;;;0.90;;
2338;SDS011;1180;51.438;6.978;2022-10-16T12:10:30;3.77;;;1.40;;
2338;SDS011;1180;51.438;6.978;2022-10-16T12:13:25;2.07;;;1.10;;
2338;SDS011;1180;51.438;6.978;2022-10-16T12:16:03;2.23;;;1.00;;
2338;SDS011;1180;51.438;6.978;2022-10-16T12:18:43;2.07;;;1.20;;
2338;SDS011;1180;51.438;6.978;2022-10-16T12:21:10;4.03;;;0.90;;
2338;SDS011;1180;51.438;6.978;2022-10-16T12:23:49;2.50;;;1.03;;
2338;SDS011;1180;51.438;6.978;2022-10-16T12:26:32;2.50;;;0.80;;
2338;SDS011;1180;51.438;6.978;2022-10-16T12:32:02;2.60;;;1.80;;
2338;SDS011;1180;51.438;6.978;2022-10-16T12:34:39;2.63;;;1.90;;
2338;SDS011;1180;51.438;6.978;2022-10-16T12:37:15;2.20;;;1.30;;
2338;SDS011;1180;51.438;6.978;2022-10-16T12:39:47;2.67;;;1.60;;
2338;SDS011;1180;51.438;6.978;2022-10-16T12:44:51;1.43;;;1.10;;
2338;SDS011;1180;51.438;6.978;2022-10-16T12:47:47;2.30;;;1.03;;
2338;SDS011;1180;51.438;6.978;2022-10-16T12:50:30;2.40;;;1.10;;
2338;SDS011;1180;51.438;6.978;2022-10-16T12:52:59;6.73;;;1.27;;
2338;SDS011;1180;51.438;6.978;2022-10-16T12:55:26;2.07;;;0.90;;
2338;SDS011;1180;51.438;6.978;2022-10-16T12:58:13;2.80;;;1.20;;
2338;SDS011;1180;51.438;6.978;2022-10-16T13:01:53;1.60;;;1.30;;
2338;SDS011;1180;51.438;6.978;2022-10-16T13:04:04;1.60;;;1.23;;
2338;SDS011;1180;51.438;6.978;2022-10-16T13:06:50;6.27;;;2.77;;
2338;SDS011;1180;51.438;6.978;2022-10-16T13:28:22;2.43;;;0.80;;
2338;SDS011;1180;51.438;6.978;2022-10-16T13:30:54;2.20;;;1.17;;
2338;SDS011;1180;51.438;6.978;2022-10-16T13:33:35;3.67;;;1.20;;
2338;SDS011;1180;51.438;6.978;2022-10-16T13:36:03;1.70;;;1.13;;
2338;SDS011;1180;51.438;6.978;2022-10-16T13:38:30;2.40;;;0.90;;
2338;SDS011;1180;51.438;6.978;2022-10-16T13:41:04;1.47;;;1.20;;
2338;SDS011;1180;51.438;6.978;2022-10-16T13:43:45;1.43;;;0.90;;
2338;SDS011;1180;51.438;6.978;2022-10-16T13:46:17;3.73;;;1.10;;
2338;SDS011;1180;51.438;6.978;2022-10-16T13:48:55;2.17;;;0.90;;
2338;SDS011;1180;51.438;6.978;2022-10-16T13:51:25;2.60;;;1.43;;
2338;SDS011;1180;51.438;6.978;2022-10-16T13:53:51;2.33;;;1.13;;
2338;SDS011;1180;51.438;6.978;2022-10-16T13:56:18;4.73;;;1.17;;
2338;SDS011;1180;51.438;6.978;2022-10-16T13:58:46;3.13;;;0.80;;
2338;SDS011;1180;51.438;6.978;2022-10-16T14:01:23;1.40;;;0.80;;
2338;SDS011;1180;51.438;6.978;2022-10-16T14:03:51;2.87;;;0.80;;
2338;SDS011;1180;51.438;6.978;2022-10-16T14:06:21;2.53;;;0.97;;
2338;SDS011;1180;51.438;6.978;2022-10-16T14:11:26;1.20;;;1.10;;
2338;SDS011;1180;51.438;6.978;2022-10-16T14:13:52;1.30;;;1.10;;
2338;SDS011;1180;51.438;6.978;2022-10-16T14:16:29;2.10;;;0.80;;
2338;SDS011;1180;51.438;6.978;2022-10-16T14:21:24;1.70;;;1.10;;
2338;SDS011;1180;51.438;6.978;2022-10-16T14:23:51;2.40;;;1.00;;
2338;SDS011;1180;51.438;6.978;2022-10-16T14:26:18;2.70;;;1.10;;
2338;SDS011;1180;51.438;6.978;2022-10-16T14:28:46;1.53;;;1.07;;
2338;SDS011;1180;51.438;6.978;2022-10-16T14:33:55;1.50;;;1.23;;
2338;SDS011;1180;51.438;6.978;2022-10-16T14:36:21;4.20;;;0.83;;
2338;SDS011;1180;51.438;6.978;2022-10-16T14:39:04;1.20;;;1.00;;
2338;SDS011;1180;51.438;6.978;2022-10-16T14:41:32;1.57;;;0.77;;
2338;SDS011;1180;51.438;6.978;2022-10-16T14:44:05;1.23;;;0.93;;
2338;SDS011;1180;51.438;6.978;2022-10-16T14:46:32;4.70;;;1.00;;
2338;SDS011;1180;51.438;6.978;2022-10-16T14:49:02;3.63;;;0.90;;
2338;SDS011;1180;51.438;6.978;2022-10-16T14:51:38;2.27;;;1.30;;
2338;SDS011;1180;51.438;6.978;2022-10-16T14:54:09;2.13;;;0.97;;
2338;SDS011;1180;51.438;6.978;2022-10-16T14:56:54;1.20;;;0.93;;
2338;SDS011;1180;51.438;6.978;2022-10-16T15:01:54;2.07;;;0.90;;
2338;SDS011;1180;51.438;6.978;2022-10-16T15:04:20;1.10;;;0.70;;
2338;SDS011;1180;51.438;6.978;2022-10-16T15:06:46;1.80;;;0.90;;
2338;SDS011;1180;51.438;6.978;2022-10-16T15:09:11;2.50;;;0.90;;
2338;SDS011;1180;51.438;6.978;2022-10-16T15:11:37;1.40;;;1.00;;
2338;SDS011;1180;51.438;6.978;2022-10-16T15:14:03;2.53;;;1.10;;
2338;SDS011;1180;51.438;6.978;2022-10-16T15:16:28;1.23;;;0.80;;
2338;SDS011;1180;51.438;6.978;2022-10-16T15:18:54;2.53;;;0.90;;
2338;SDS011;1180;51.438;6.978;2022-10-16T15:21:27;2.50;;;1.07;;
2338;SDS011;1180;51.438;6.978;2022-10-16T15:23:55;1.53;;;0.80;;
2338;SDS011;1180;51.438;6.978;2022-10-16T15:26:22;2.10;;;1.03;;
2338;SDS011;1180;51.438;6.978;2022-10-16T15:28:48;2.90;;;1.07;;
2338;SDS011;1180;51.438;6.978;2022-10-16T15:31:13;1.97;;;1.30;;
2338;SDS011;1180;51.438;6.978;2022-10-16T15:33:39;2.23;;;1.40;;
2338;SDS011;1180;51.438;6.978;2022-10-16T15:36:04;1.43;;;1.10;;
2338;SDS011;1180;51.438;6.978;2022-10-16T15:38:30;1.87;;;1.43;;
2338;SDS011;1180;51.438;6.978;2022-10-16T15:40:56;3.40;;;1.43;;
2338;SDS011;1180;51.438;6.978;2022-10-16T15:43:22;1.90;;;1.20;;
2338;SDS011;1180;51.438;6.978;2022-10-16T15:45:52;4.80;;;1.57;;
2338;SDS011;1180;51.438;6.978;2022-10-16T15:48:25;3.50;;;1.33;;
2338;SDS011;1180;51.438;6.978;2022-10-16T15:50:50;3.20;;;1.33;;
2338;SDS011;1180;51.438;6.978;2022-10-16T15:53:16;4.80;;;1.63;;
2338;SDS011;1180;51.438;6.978;2022-10-16T15:55:41;2.80;;;1.70;;
2338;SDS011;1180;51.438;6.978;2022-10-16T15:58:06;5.00;;;2.00;;
2338;SDS011;1180;51.438;6.978;2022-10-16T16:00:32;3.47;;;1.63;;
2338;SDS011;1180;51.438;6.978;2022-10-16T16:02:57;2.87;;;1.60;;
2338;SDS011;1180;51.438;6.978;2022-10-16T16:05:22;3.73;;;1.50;;
2338;SDS011;1180;51.438;6.978;2022-10-16T16:07:48;1.77;;;1.20;;
2338;SDS011;1180;51.438;6.978;2022-10-16T16:10:14;3.23;;;1.77;;
2338;SDS011;1180;51.438;6.978;2022-10-16T16:12:40;1.80;;;1.53;;
2338;SDS011;1180;51.438;6.978;2022-10-16T16:15:06;2.07;;;1.87;;
2338;SDS011;1180;51.438;6.978;2022-10-16T16:17:33;1.60;;;1.47;;
2338;SDS011;1180;51.438;6.978;2022-10-16T16:19:59;2.50;;;1.60;;
2338;SDS011;1180;51.438;6.978;2022-10-16T16:22:25;2.70;;;1.70;;
2338;SDS011;1180;51.438;6.978;2022-10-16T16:24:50;4.60;;;1.90;;
2338;SDS011;1180;51.438;6.978;2022-10-16T16:27:16;1.60;;;1.50;;
2338;SDS011;1180;51.438;6.978;2022-10-16T16:29:41;4.00;;;2.07;;
2338;SDS011;1180;51.438;6.978;2022-10-16T16:32:06;2.47;;;1.70;;
2338;SDS011;1180;51.438;6.978;2022-10-16T16:34:32;2.07;;;1.40;;
2338;SDS011;1180;51.438;6.978;2022-10-16T16:36:57;3.30;;;2.20;;
2338;SDS011;1180;51.438;6.978;2022-10-16T16:39:23;6.30;;;1.93;;
2338;SDS011;1180;51.438;6.978;2022-10-16T16:41:48;2.97;;;2.10;;
2338;SDS011;1180;51.438;6.978;2022-10-16T16:44:15;5.13;;;1.67;;
2338;SDS011;1180;51.438;6.978;2022-10-16T16:46:41;2.80;;;1.90;;
2338;SDS011;1180;51.438;6.978;2022-10-16T16:49:09;3.23;;;2.27;;
2338;SDS011;1180;51.438;6.978;2022-10-16T16:51:35;3.33;;;1.77;;
2338;SDS011;1180;51.438;6.978;2022-10-16T16:54:01;2.33;;;2.13;;
2338;SDS011;1180;51.438;6.978;2022-10-16T16:56:27;2.90;;;2.23;;
2338;SDS011;1180;51.438;6.978;2022-10-16T16:58:53;4.93;;;2.90;;
2338;SDS011;1180;51.438;6.978;2022-10-16T17:01:20;5.80;;;3.20;;
2338;SDS011;1180;51.438;6.978;2022-10-16T17:03:47;4.40;;;3.27;;
2338;SDS011;1180;51.438;6.978;2022-10-16T17:06:14;2.63;;;2.40;;
2338;SDS011;1180;51.438;6.978;2022-10-16T17:08:40;3.37;;;2.20;;
2338;SDS011;1180;51.438;6.978;2022-10-16T17:11:11;7.40;;;4.03;;
2338;SDS011;1180;51.438;6.978;2022-10-16T17:13:37;4.03;;;2.43;;
2338;SDS011;1180;51.438;6.978;2022-10-16T17:16:03;4.13;;;2.77;;
2338;SDS011;1180;51.438;6.978;2022-10-16T17:18:30;3.43;;;3.13;;
2338;SDS011;1180;51.438;6.978;2022-10-16T17:20:59;3.03;;;2.50;;
2338;SDS011;1180;51.438;6.978;2022-10-16T17:23:25;3.67;;;3.07;;
2338;SDS011;1180;51.438;6.978;2022-10-16T17:25:52;3.57;;;2.80;;
2338;SDS011;1180;51.438;6.978;2022-10-16T17:28:17;3.87;;;2.97;;
2338;SDS011;1180;51.438;6.978;2022-10-16T17:30:43;6.43;;;3.53;;
2338;SDS011;1180;51.438;6.978;2022-10-16T17:33:08;2.80;;;2.50;;
2338;SDS011;1180;51.438;6.978;2022-10-16T17:35:39;3.33;;;2.60;;
2338;SDS011;1180;51.438;6.978;2022-10-16T17:38:09;4.27;;;2.80;;